createdAt,value
2022-11-20T00:00:56.469Z,19.20
2022-11-20T00:03:24.842Z,11.60
2022-11-20T00:05:52.906Z,16.40
2022-11-20T00:08:21.496Z,23.00
2022-11-20T00:10:51.010Z,17.20
2022-11-20T00:13:19.104Z,18.00
2022-11-20T00:15:47.232Z,17.40
2022-11-20T00:18:15.495Z,18.40
2022-11-20T00:20:43.575Z,19.80
2022-11-20T00:23:11.853Z,29.00
2022-11-20T00:25:39.911Z,25.00
2022-11-20T00:28:09.387Z,16.00
2022-11-20T00:30:37.394Z,27.00
2022-11-20T00:33:05.422Z,30.00
2022-11-20T00:35:33.474Z,19.80
2022-11-20T00:38:01.632Z,18.40
2022-11-20T00:40:29.843Z,13.00
2022-11-20T00:42:57.904Z,21.60
2022-11-20T00:45:27.375Z,27.80
2022-11-20T00:47:55.389Z,22.80
2022-11-20T00:50:23.401Z,16.80
2022-11-20T00:52:51.400Z,15.20
2022-11-20T00:55:19.448Z,22.40
2022-11-20T00:57:47.483Z,17.00
2022-11-20T01:00:15.594Z,20.60
2022-11-20T01:02:45.210Z,18.20
2022-11-20T01:05:13.236Z,14.60
2022-11-20T01:07:41.292Z,17.80
2022-11-20T01:10:09.775Z,17.20
2022-11-20T01:12:37.843Z,24.20
2022-11-20T01:15:06.229Z,10.20
2022-11-20T01:17:34.337Z,9.60
2022-11-20T01:20:03.752Z,21.20
2022-11-20T01:22:31.799Z,23.60
2022-11-20T01:24:59.987Z,18.00
2022-11-20T01:27:28.076Z,5.80
2022-11-20T01:30:00.923Z,14.60
2022-11-20T01:32:31.789Z,16.40
2022-11-20T01:34:59.990Z,17.40
2022-11-20T01:37:29.466Z,12.60
2022-11-20T01:39:57.592Z,10.80
2022-11-20T01:42:43.023Z,19.80
2022-11-20T01:45:25.999Z,14.20
2022-11-20T01:47:54.044Z,19.20
2022-11-20T01:50:25.022Z,18.00
2022-11-20T01:52:57.801Z,21.20
2022-11-20T01:55:28.367Z,20.60
2022-11-20T01:57:56.855Z,10.40
2022-11-20T02:00:25.236Z,14.40
2022-11-20T02:02:55.864Z,20.00
2022-11-20T02:05:26.228Z,18.40
2022-11-20T02:07:56.698Z,23.80
2022-11-20T02:10:25.040Z,19.60
2022-11-20T02:13:10.791Z,20.20
2022-11-20T02:15:39.328Z,16.40
2022-11-20T02:18:07.962Z,6.00
2022-11-20T02:20:36.069Z,18.00
2022-11-20T02:23:07.223Z,15.60
2022-11-20T02:25:38.920Z,11.60
2022-11-20T02:28:07.303Z,14.20
2022-11-20T02:30:35.418Z,19.40
2022-11-20T02:33:03.503Z,18.80
2022-11-20T02:35:47.874Z,18.60
2022-11-20T02:38:16.799Z,16.80
2022-11-20T02:40:47.176Z,15.00
2022-11-20T02:43:18.002Z,20.60
2022-11-20T02:45:46.307Z,13.80
2022-11-20T02:48:14.473Z,19.20
2022-11-20T02:50:42.798Z,11.60
2022-11-20T02:53:10.840Z,12.40
2022-11-20T02:55:38.994Z,19.40
2022-11-20T02:58:08.510Z,19.00
2022-11-20T03:00:36.682Z,21.40
2022-11-20T03:03:04.971Z,15.60
2022-11-20T03:05:33.010Z,16.00
2022-11-20T03:08:01.057Z,13.80
2022-11-20T03:10:29.215Z,20.00
2022-11-20T03:12:57.610Z,15.60
2022-11-20T03:15:27.337Z,18.00
2022-11-20T03:17:56.875Z,20.00
2022-11-20T03:20:25.295Z,14.20
2022-11-20T03:22:53.374Z,24.00
2022-11-20T03:25:21.528Z,20.00
2022-11-20T03:27:49.646Z,22.80
2022-11-20T03:30:17.713Z,15.80
2022-11-20T03:32:47.259Z,9.80
2022-11-20T03:35:15.417Z,22.80
2022-11-20T03:37:43.452Z,23.40
2022-11-20T03:40:11.976Z,22.40
2022-11-20T03:42:49.042Z,10.40
2022-11-20T03:45:18.166Z,14.80
2022-11-20T03:47:48.186Z,14.40
2022-11-20T03:50:16.419Z,21.00
2022-11-20T03:52:44.676Z,19.40
2022-11-20T03:55:12.727Z,8.60
2022-11-20T03:57:40.964Z,22.80
2022-11-20T04:00:09.512Z,21.40
2022-11-20T04:02:37.570Z,18.60
2022-11-20T04:05:07.654Z,23.00
2022-11-20T04:07:36.248Z,22.60
2022-11-20T04:10:04.898Z,25.00
2022-11-20T04:12:34.338Z,20.60
2022-11-20T04:15:02.459Z,20.40
2022-11-20T04:17:31.904Z,17.40
2022-11-20T04:20:00.002Z,16.60
2022-11-20T04:22:29.529Z,12.40
2022-11-20T04:24:57.609Z,19.00
2022-11-20T04:27:25.917Z,11.80
2022-11-20T04:29:53.961Z,12.80
2022-11-20T04:32:22.174Z,15.80
2022-11-20T04:34:50.351Z,15.20
2022-11-20T04:37:18.478Z,13.40
2022-11-20T04:39:47.912Z,13.60
2022-11-20T04:42:31.290Z,22.80
2022-11-20T04:44:59.487Z,18.00
2022-11-20T04:47:27.744Z,24.20
2022-11-20T04:49:55.868Z,11.20
2022-11-20T04:52:23.969Z,23.80
2022-11-20T04:54:54.486Z,14.20
2022-11-20T04:57:22.563Z,12.60
2022-11-20T04:59:50.578Z,19.80
2022-11-20T05:02:18.799Z,15.40
2022-11-20T05:04:46.833Z,14.20
2022-11-20T05:07:14.958Z,10.40
2022-11-20T05:09:43.145Z,17.40
2022-11-20T05:12:12.634Z,17.00
2022-11-20T05:14:40.717Z,20.20
2022-11-20T05:17:11.796Z,21.60
2022-11-20T05:19:39.857Z,13.00
2022-11-20T05:22:07.888Z,19.40
2022-11-20T05:24:35.931Z,21.80
2022-11-20T05:27:04.188Z,18.00
2022-11-20T05:29:33.650Z,20.20
2022-11-20T05:32:01.880Z,20.20
2022-11-20T05:34:29.966Z,22.00
2022-11-20T05:36:58.293Z,25.60
2022-11-20T05:39:26.540Z,23.60
2022-11-20T05:42:14.701Z,17.20
2022-11-20T05:44:44.155Z,23.80
2022-11-20T05:47:12.303Z,22.20
2022-11-20T05:49:40.555Z,24.40
2022-11-20T05:52:08.618Z,17.00
2022-11-20T05:54:36.755Z,21.80
2022-11-20T05:57:04.899Z,23.60
2022-11-20T05:59:32.979Z,23.80
2022-11-20T06:02:02.543Z,22.40
2022-11-20T06:04:30.857Z,23.40
2022-11-20T06:06:58.971Z,28.20
2022-11-20T06:09:27.118Z,18.40
2022-11-20T06:11:55.318Z,13.40
2022-11-20T06:14:23.395Z,21.80
2022-11-20T06:16:51.470Z,28.40
2022-11-20T06:19:21.137Z,29.40
2022-11-20T06:21:49.999Z,24.60
2022-11-20T06:24:18.110Z,30.00
2022-11-20T06:26:46.608Z,31.60
2022-11-20T06:29:14.668Z,29.20
2022-11-20T06:31:43.625Z,26.60
2022-11-20T06:34:11.932Z,25.00
2022-11-20T06:36:41.428Z,27.00
2022-11-20T06:39:09.460Z,22.00
2022-11-20T06:41:37.559Z,19.40
2022-11-20T06:44:06.248Z,19.60
2022-11-20T06:46:34.427Z,29.40
2022-11-20T06:49:02.666Z,31.00
2022-11-20T06:51:30.751Z,31.00
2022-11-20T06:54:02.000Z,26.80
2022-11-20T06:56:30.254Z,28.60
2022-11-20T06:58:58.307Z,30.00
2022-11-20T07:01:26.447Z,27.20
2022-11-20T07:03:54.887Z,21.60
2022-11-20T07:06:23.169Z,25.00
2022-11-20T07:08:53.353Z,24.60
2022-11-20T07:11:23.025Z,20.40
2022-11-20T07:13:51.475Z,16.00
2022-11-20T07:16:19.697Z,30.40
2022-11-20T07:18:50.824Z,25.60
2022-11-20T07:21:19.579Z,27.20
2022-11-20T07:23:47.739Z,21.00
2022-11-20T07:26:16.102Z,21.20
2022-11-20T07:28:47.702Z,23.60
2022-11-20T07:31:19.119Z,19.20
2022-11-20T07:33:48.075Z,25.00
2022-11-20T07:36:16.337Z,31.20
2022-11-20T07:38:44.485Z,16.50
2022-11-20T07:41:12.840Z,22.25
2022-11-20T07:43:41.723Z,25.40
2022-11-20T07:46:11.569Z,30.20
2022-11-20T07:48:39.834Z,26.20
2022-11-20T07:51:08.470Z,30.60
2022-11-20T07:53:36.610Z,7.00
2022-11-20T07:56:05.306Z,21.20
2022-11-20T07:58:35.584Z,16.40
2022-11-20T08:01:07.185Z,26.60
2022-11-20T08:03:38.808Z,30.60
2022-11-20T08:06:09.249Z,15.00
2022-11-20T08:08:42.386Z,20.40
2022-11-20T08:11:28.425Z,27.40
2022-11-20T08:14:14.948Z,25.20
2022-11-20T08:16:43.928Z,23.60
2022-11-20T08:19:13.824Z,30.80
2022-11-20T08:21:42.010Z,33.40
2022-11-20T08:24:11.999Z,25.80
2022-11-20T08:26:40.805Z,27.60
2022-11-20T08:29:09.040Z,31.20
2022-11-20T08:31:37.442Z,30.60
2022-11-20T08:34:09.452Z,31.20
2022-11-20T08:36:39.525Z,19.20
2022-11-20T08:39:07.741Z,22.80
2022-11-20T08:41:37.925Z,25.20
2022-11-20T08:44:07.870Z,21.00
2022-11-20T08:46:38.028Z,27.80
2022-11-20T08:49:07.170Z,22.80
2022-11-20T08:51:35.399Z,26.20
2022-11-20T08:54:05.834Z,28.00
2022-11-20T08:56:34.097Z,17.60
2022-11-20T08:59:43.788Z,21.20
2022-11-20T09:01:50.428Z,17.50
2022-11-20T09:04:20.001Z,26.75
2022-11-20T09:06:52.073Z,27.20
2022-11-20T09:09:22.142Z,29.40
2022-11-20T09:11:51.084Z,34.40
2022-11-20T09:14:19.270Z,35.00
2022-11-20T09:16:47.630Z,31.00
2022-11-20T09:22:05.095Z,38.40
2022-11-20T09:24:35.445Z,24.20
2022-11-20T09:27:04.389Z,31.60
2022-11-20T09:29:32.685Z,35.40
2022-11-20T09:32:00.869Z,33.40
2022-11-20T09:34:29.005Z,25.20
2022-11-20T09:36:57.922Z,24.60
2022-11-20T09:39:27.543Z,30.80
2022-11-20T09:42:19.541Z,33.60
2022-11-20T09:44:56.409Z,32.40
2022-11-20T09:47:28.858Z,29.60
2022-11-20T09:50:02.685Z,36.20
2022-11-20T09:52:35.110Z,26.20
2022-11-20T09:55:04.383Z,17.60
2022-11-20T09:57:36.943Z,32.40
2022-11-20T10:00:08.510Z,25.00
2022-11-20T10:02:49.835Z,33.80
2022-11-20T10:05:20.645Z,32.20
2022-11-20T10:07:52.432Z,30.20
2022-11-20T10:10:24.033Z,30.60
2022-11-20T10:13:01.478Z,39.60
2022-11-20T10:15:36.467Z,5.20
2022-11-20T10:18:13.982Z,43.40
2022-11-20T10:20:46.373Z,33.80
2022-11-20T10:23:26.290Z,21.60
2022-11-20T10:25:58.611Z,32.20
2022-11-20T10:28:41.879Z,20.60
2022-11-20T10:31:13.645Z,33.80
2022-11-20T10:34:10.413Z,32.00
2022-11-20T10:36:36.054Z,31.00
2022-11-20T10:39:08.517Z,22.00
2022-11-20T10:41:39.454Z,34.20
2022-11-20T10:44:11.959Z,36.80
2022-11-20T10:46:43.273Z,31.20
2022-11-20T10:49:15.382Z,29.20
2022-11-20T10:51:50.623Z,30.80
2022-11-20T10:54:23.086Z,37.20
2022-11-20T10:56:53.265Z,29.80
2022-11-20T10:59:36.883Z,34.00
2022-11-20T11:02:17.222Z,42.40
2022-11-20T11:04:47.815Z,36.20
2022-11-20T11:07:19.231Z,34.40
2022-11-20T11:09:50.281Z,29.60
2022-11-20T11:12:18.920Z,40.60
2022-11-20T11:14:48.037Z,27.80
2022-11-20T11:17:24.711Z,41.40
2022-11-20T11:20:06.903Z,35.40
2022-11-20T11:22:36.227Z,28.00
2022-11-20T11:25:04.577Z,41.20
2022-11-20T11:27:32.896Z,36.60
2022-11-20T11:30:05.339Z,31.60
2022-11-20T11:32:34.905Z,39.60
2022-11-20T11:35:03.597Z,33.80
2022-11-20T11:37:39.589Z,41.80
2022-11-20T11:40:23.822Z,37.20
2022-11-20T11:42:56.371Z,40.60
2022-11-20T11:45:23.713Z,32.60
2022-11-20T11:47:54.799Z,40.80
2022-11-20T11:50:24.120Z,40.60
2022-11-20T11:53:06.753Z,40.00
2022-11-20T11:55:37.898Z,41.60
2022-11-20T11:58:14.209Z,42.00
2022-11-20T12:00:43.877Z,47.60
2022-11-20T12:03:18.234Z,34.00
2022-11-20T12:05:48.237Z,36.60
2022-11-20T12:08:19.805Z,40.20
2022-11-20T12:10:51.317Z,43.00
2022-11-20T12:13:37.535Z,42.20
2022-11-20T12:16:06.392Z,36.40
2022-11-20T12:18:35.986Z,35.40
2022-11-20T12:21:10.998Z,44.80
2022-11-20T12:23:51.133Z,38.20
2022-11-20T12:26:25.290Z,38.20
2022-11-20T12:29:01.221Z,37.00
2022-11-20T12:31:41.454Z,42.00
2022-11-20T12:34:21.900Z,41.40
2022-11-20T12:36:55.133Z,37.60
2022-11-20T12:39:36.357Z,43.20
2022-11-20T12:42:32.068Z,42.20
2022-11-20T12:45:15.514Z,48.40
2022-11-20T12:48:01.097Z,43.20
2022-11-20T12:50:42.879Z,46.80
2022-11-20T12:53:28.345Z,65.80
2022-11-20T12:56:02.044Z,62.20
2022-11-20T12:58:34.458Z,48.20
2022-11-20T13:01:31.608Z,64.40
2022-11-20T13:04:07.805Z,40.00
2022-11-20T13:06:42.662Z,54.40
2022-11-20T13:09:14.184Z,51.00
2022-11-20T13:11:45.850Z,47.60
2022-11-20T13:14:19.113Z,43.80
2022-11-20T13:16:50.756Z,42.00
2022-11-20T13:19:20.671Z,44.40
2022-11-20T13:21:51.584Z,41.80
2022-11-20T13:24:26.049Z,49.20
2022-11-20T13:27:04.528Z,46.60
2022-11-20T13:29:33.226Z,38.00
2022-11-20T13:32:08.188Z,39.60
2022-11-20T13:34:37.032Z,36.20
2022-11-20T13:37:06.792Z,46.00
2022-11-20T13:39:36.290Z,35.20
2022-11-20T13:42:05.268Z,41.60
2022-11-20T13:44:38.898Z,45.00
2022-11-20T13:47:22.263Z,46.20
2022-11-20T13:49:50.872Z,41.60
2022-11-20T13:52:36.864Z,50.80
2022-11-20T13:55:10.709Z,39.80
2022-11-20T13:57:49.523Z,39.20
2022-11-20T14:00:19.157Z,45.40
2022-11-20T14:02:51.970Z,40.80
2022-11-20T14:05:22.973Z,47.20
2022-11-20T14:07:53.700Z,42.80
2022-11-20T14:10:25.915Z,39.40
2022-11-20T14:12:58.732Z,52.60
2022-11-20T14:15:30.280Z,39.00
2022-11-20T14:17:58.794Z,27.80
2022-11-20T14:20:29.026Z,36.40
2022-11-20T14:22:58.676Z,58.60
2022-11-20T14:25:28.332Z,55.40
2022-11-20T14:27:57.661Z,41.40
2022-11-20T14:30:26.883Z,43.60
2022-11-20T14:32:56.704Z,58.40
2022-11-20T14:35:27.097Z,49.60
2022-11-20T14:37:55.564Z,39.60
2022-11-20T14:40:29.758Z,52.00
2022-11-20T14:42:58.750Z,52.40
2022-11-20T14:45:27.354Z,53.20
2022-11-20T14:47:57.446Z,49.20
2022-11-20T14:50:27.015Z,53.40
2022-11-20T14:52:56.346Z,60.40
2022-11-20T14:55:30.100Z,42.80
2022-11-20T14:57:58.979Z,57.00
2022-11-20T15:00:27.472Z,54.60
2022-11-20T15:02:55.938Z,45.40
2022-11-20T15:05:25.626Z,48.40
2022-11-20T15:08:06.097Z,52.60
2022-11-20T15:10:35.863Z,47.80
2022-11-20T15:13:09.879Z,62.00
2022-11-20T15:15:44.983Z,52.80
2022-11-20T15:18:15.039Z,39.60
2022-11-20T15:20:43.610Z,49.80
2022-11-20T15:23:15.850Z,55.60
2022-11-20T15:25:45.459Z,46.40
2022-11-20T15:28:18.301Z,51.60
2022-11-20T15:30:46.509Z,42.80
2022-11-20T15:33:15.170Z,39.80
2022-11-20T15:35:43.333Z,55.40
2022-11-20T15:38:11.556Z,50.80
2022-11-20T15:40:39.704Z,34.80
2022-11-20T15:43:13.449Z,41.80
2022-11-20T15:45:43.721Z,39.40
2022-11-20T15:48:13.700Z,63.40
2022-11-20T15:50:46.223Z,50.20
2022-11-20T15:53:21.411Z,36.00
2022-11-20T15:55:49.684Z,46.60
2022-11-20T15:58:19.283Z,38.80
2022-11-20T16:00:47.812Z,46.00
2022-11-20T16:03:16.773Z,47.40
2022-11-20T16:05:45.130Z,56.00
2022-11-20T16:08:13.427Z,42.20
2022-11-20T16:10:42.014Z,51.00
2022-11-20T16:13:31.476Z,52.60
2022-11-20T16:16:02.296Z,43.00
2022-11-20T16:18:30.394Z,43.20
2022-11-20T16:20:58.559Z,53.80
2022-11-20T16:23:26.990Z,50.40
2022-11-20T16:25:55.218Z,53.60
2022-11-20T16:28:23.624Z,53.80
2022-11-20T16:30:51.946Z,54.60
2022-11-20T16:33:21.675Z,51.80
2022-11-20T16:35:49.824Z,53.20
2022-11-20T16:38:18.018Z,53.00
2022-11-20T16:40:46.195Z,44.40
2022-11-20T16:43:16.108Z,42.40
2022-11-20T16:45:45.198Z,49.00
2022-11-20T16:48:18.379Z,54.60
2022-11-20T16:50:50.362Z,56.40
2022-11-20T16:53:18.839Z,64.60
2022-11-20T16:55:47.854Z,55.00
2022-11-20T16:58:16.245Z,69.20
2022-11-20T17:00:51.603Z,40.60
2022-11-20T17:03:21.145Z,64.80
2022-11-20T17:05:51.076Z,59.40
2022-11-20T17:08:19.398Z,66.00
2022-11-20T17:10:47.894Z,62.80
2022-11-20T17:13:17.344Z,62.20
2022-11-20T17:15:45.582Z,63.40
2022-11-20T17:18:13.845Z,56.00
2022-11-20T17:20:42.225Z,54.20
2022-11-20T17:23:11.943Z,71.40
2022-11-20T17:25:40.339Z,61.80
2022-11-20T17:28:08.679Z,64.00
2022-11-20T17:30:36.865Z,69.80
2022-11-20T17:33:05.063Z,63.40
2022-11-20T17:35:33.259Z,62.80
2022-11-20T17:38:01.590Z,64.40
2022-11-20T17:40:32.047Z,68.80
2022-11-20T17:43:00.416Z,61.40
2022-11-20T17:45:28.596Z,62.60
2022-11-20T17:47:56.851Z,65.60
2022-11-20T17:50:25.153Z,69.40
2022-11-20T17:52:53.345Z,66.20
2022-11-20T17:55:21.509Z,64.80
2022-11-20T17:57:52.811Z,68.00
2022-11-20T18:00:21.180Z,53.20
2022-11-20T18:02:49.379Z,61.40
2022-11-20T18:05:17.693Z,49.20
2022-11-20T18:07:46.001Z,47.60
2022-11-20T18:10:14.557Z,57.20
2022-11-20T18:12:42.910Z,61.80
2022-11-20T18:15:12.625Z,51.00
2022-11-20T18:17:41.040Z,46.80
2022-11-20T18:22:59.030Z,46.60
2022-11-20T18:25:27.215Z,66.40
2022-11-20T18:27:56.552Z,56.20
2022-11-20T18:30:26.301Z,48.80
2022-11-20T18:32:55.607Z,43.20
2022-11-20T18:35:24.131Z,44.20
2022-11-20T18:37:52.364Z,47.00
2022-11-20T18:40:20.564Z,63.00
2022-11-20T18:43:05.964Z,58.60
2022-11-20T18:45:35.831Z,57.60
2022-11-20T18:48:04.299Z,58.40
2022-11-20T18:50:32.587Z,49.80
2022-11-20T18:53:00.822Z,43.00
2022-11-20T18:55:29.074Z,62.00
2022-11-20T18:57:57.473Z,51.20
2022-11-20T19:00:25.691Z,56.20
2022-11-20T19:02:55.847Z,63.80
2022-11-20T19:05:24.981Z,64.00
2022-11-20T19:07:53.679Z,60.60
2022-11-20T19:10:24.398Z,53.40
2022-11-20T19:12:52.724Z,59.60
2022-11-20T19:15:20.979Z,59.80
2022-11-20T19:17:49.264Z,68.60
2022-11-20T19:20:19.206Z,68.60
2022-11-20T19:22:51.077Z,56.40
2022-11-20T19:25:19.354Z,41.60
2022-11-20T19:27:47.580Z,64.00
2022-11-20T19:30:16.150Z,66.00
2022-11-20T19:32:44.478Z,67.20
2022-11-20T19:35:13.452Z,63.20
2022-11-20T19:37:43.142Z,49.80
2022-11-20T19:40:11.558Z,56.00
2022-11-20T19:42:40.729Z,54.60
2022-11-20T19:45:09.757Z,44.20
2022-11-20T19:48:07.354Z,59.40
2022-11-20T19:50:26.851Z,55.00
2022-11-20T19:52:58.967Z,52.40
2022-11-20T19:55:27.542Z,32.80
2022-11-20T19:57:55.939Z,59.60
2022-11-20T20:00:29.436Z,49.20
2022-11-20T20:03:00.832Z,34.00
2022-11-20T20:05:29.158Z,44.40
2022-11-20T20:07:58.892Z,42.60
2022-11-20T20:10:27.026Z,42.80
2022-11-20T20:12:55.185Z,54.80
2022-11-20T20:15:23.350Z,47.60
2022-11-20T20:17:52.977Z,52.20
2022-11-20T20:20:21.111Z,42.60
2022-11-20T20:22:49.272Z,39.80
2022-11-20T20:25:19.034Z,48.60
2022-11-20T20:27:47.298Z,50.20
2022-11-20T20:30:15.514Z,45.20
2022-11-20T20:32:43.709Z,41.00
2022-11-20T20:35:11.878Z,43.80
2022-11-20T20:37:40.047Z,49.40
2022-11-20T20:40:12.258Z,59.40
2022-11-20T20:42:44.641Z,42.00
2022-11-20T20:45:12.880Z,36.80
2022-11-20T20:47:42.633Z,36.60
2022-11-20T20:50:12.135Z,41.20
2022-11-20T20:52:40.415Z,50.20
2022-11-20T20:55:08.879Z,42.60
2022-11-20T20:57:37.476Z,42.80
2022-11-20T21:00:08.891Z,48.80
2022-11-20T21:02:37.233Z,47.60
2022-11-20T21:05:05.702Z,39.00
2022-11-20T21:07:33.926Z,45.20
2022-11-20T21:10:02.137Z,49.20
2022-11-20T21:12:31.558Z,41.40
2022-11-20T21:14:59.700Z,39.20
2022-11-20T21:17:31.415Z,57.80
2022-11-20T21:19:59.735Z,52.00
2022-11-20T21:22:31.487Z,47.00
2022-11-20T21:25:03.495Z,55.00
2022-11-20T21:27:31.923Z,42.60
2022-11-20T21:30:00.048Z,43.00
2022-11-20T21:32:29.660Z,41.00
2022-11-20T21:34:57.853Z,46.40
2022-11-20T21:37:26.092Z,34.00
2022-11-20T21:39:55.431Z,50.00
2022-11-20T21:42:23.554Z,31.80
2022-11-20T21:44:51.701Z,41.40
2022-11-20T21:47:19.884Z,43.20
2022-11-20T21:49:49.361Z,31.80
2022-11-20T21:52:17.399Z,45.00
2022-11-20T21:54:45.441Z,41.20
2022-11-20T21:57:13.605Z,38.40
2022-11-20T21:59:41.663Z,42.20
2022-11-20T22:02:12.079Z,31.80
2022-11-20T22:04:40.182Z,41.00
2022-11-20T22:07:09.788Z,37.00
2022-11-20T22:09:37.820Z,33.40
2022-11-20T22:12:06.285Z,42.40
2022-11-20T22:14:33.431Z,32.00
2022-11-20T22:17:01.474Z,42.20
2022-11-20T22:19:29.613Z,25.80
2022-11-20T22:21:57.668Z,38.00
2022-11-20T22:24:27.342Z,43.20
2022-11-20T22:26:55.935Z,39.00
2022-11-20T22:29:24.023Z,34.60
2022-11-20T22:31:53.014Z,26.60
2022-11-20T22:34:21.495Z,31.20
2022-11-20T22:36:49.767Z,30.00
2022-11-20T22:39:18.798Z,39.80
2022-11-20T22:41:48.352Z,34.00
2022-11-20T22:44:17.112Z,25.40
2022-11-20T22:46:45.368Z,34.60
2022-11-20T22:49:13.577Z,38.40
2022-11-20T22:51:42.622Z,31.80
2022-11-20T22:54:12.666Z,29.40
2022-11-20T22:56:40.756Z,35.80
2022-11-20T22:59:11.283Z,30.20
2022-11-20T23:01:39.686Z,30.80
2022-11-20T23:04:09.003Z,29.20
2022-11-20T23:06:37.163Z,29.20
2022-11-20T23:09:05.628Z,22.80
2022-11-20T23:11:33.883Z,31.00
2022-11-20T23:14:03.272Z,31.80
2022-11-20T23:16:33.249Z,23.40
2022-11-20T23:19:01.970Z,27.20
2022-11-20T23:21:30.061Z,33.60
2022-11-20T23:23:58.952Z,25.80
2022-11-20T23:26:28.542Z,32.60
2022-11-20T23:28:57.844Z,34.60
2022-11-20T23:31:26.879Z,25.80
2022-11-20T23:33:56.338Z,23.00
2022-11-20T23:36:24.347Z,24.80
2022-11-20T23:38:52.430Z,30.60
2022-11-20T23:41:20.475Z,34.20
2022-11-20T23:43:48.522Z,23.60
2022-11-20T23:46:17.075Z,35.00
2022-11-20T23:48:46.055Z,26.60
2022-11-20T23:51:16.018Z,29.40
2022-11-20T23:53:44.209Z,30.80
2022-11-20T23:56:14.449Z,15.40
2022-11-20T23:58:42.826Z,25.20
